Aeroporto :
LOGIN :

Iscrizione | Disclaimer

   EN    FR    IT 

 










Sommario :    VFR   VFR Marginale   IFR   IFR Intensivo   IFR Molto Intensivo
Visibilità : 
Base nubi : 
>= 8 km
>= 3000ft
5 / 8 km
1000 / 3000 ft
1500m / 5 km
500 / 1000 ft
800 / 1500m
200 / 500 ft
< 800m
< 200 ft
Simboli :   Temporali  Nebbia  Neve Forte  Precipitazioni Forti  Vento > 20 kt
SIGMETs :   Varie  Temporali  Ghiacco  Turbolenza  Onda orograficha  Ceneri Vulcaniche







- Altitudine del aeroporto : 782 ft
- Codice IATA : BGY


LIME - Orio al Serio International - Bergamo

ULTIMO METAR :
  • 191250Z 21004KT 130V290 9999 FEW045 20/08 Q1029 NOSIG

METARs OBSOLETI :
  • 191220Z 17006KT 100V250 9999 FEW045 19/07 Q1029 NOSIG
  • 191150Z 22006KT 170V310 9999 FEW045 18/06 Q1029 NOSIG
  • 191120Z 16004KT 130V200 9999 FEW045 19/06 Q1030 NOSIG
  • 191050Z 19006KT 140V270 9999 FEW045 18/05 Q1030 NOSIG
  • 191020Z VRB05KT 9999 FEW060 18/05 Q1030 NOSIG

TAF TAF LIME
Valido dal 19 a 12 ore il 20 a 12 ore UTC


191100Z 1912/2012 13007KT 9999 SCT060
Nessun NOTAM noto per questo aeroporto.



MetMap, La meteo Aeronautica in un colpo d'occhio ! - Copyright ORBIFLY Dicembre 2007 - Disclaimer

ORBIFLY MET'MAP TEAM :

Programmazione e sviluppo : Alexandra Zaïnal
Concezione e sviluppo : Baudouin d'Aumeries
Co-Programmazione e sviluppo : Marc-Olivier Méhu
Supporto tecnico e logistico : Manuel Goepfert
Aiuto per la traduzione : Arnaldo La Scala

Contatto : metmap@orbifly.com




FONTI E CREDITI :

   NOAA